sensor_id;sensor_type;location;lat;lon;timestamp;P1;durP1;ratioP1;P2;durP2;ratioP2
12832;SDS011;6483;51.310;4.462;2022-09-01T00:02:06;2.35;;;1.20;;
12832;SDS011;6483;51.310;4.462;2022-09-01T00:04:33;3.08;;;1.20;;
12832;SDS011;6483;51.310;4.462;2022-09-01T00:07:02;6.80;;;1.35;;
12832;SDS011;6483;51.310;4.462;2022-09-01T00:09:29;2.47;;;1.20;;
12832;SDS011;6483;51.310;4.462;2022-09-01T00:11:55;2.03;;;1.20;;
12832;SDS011;6483;51.310;4.462;2022-09-01T00:14:23;10.55;;;1.42;;
12832;SDS011;6483;51.310;4.462;2022-09-01T00:16:50;2.13;;;1.45;;
12832;SDS011;6483;51.310;4.462;2022-09-01T00:19:21;4.25;;;1.65;;
12832;SDS011;6483;51.310;4.462;2022-09-01T00:21:47;2.17;;;1.48;;
12832;SDS011;6483;51.310;4.462;2022-09-01T00:24:16;5.20;;;1.45;;
12832;SDS011;6483;51.310;4.462;2022-09-01T00:26:46;1.23;;;1.10;;
12832;SDS011;6483;51.310;4.462;2022-09-01T00:29:14;2.20;;;1.65;;
12832;SDS011;6483;51.310;4.462;2022-09-01T00:31:43;1.77;;;1.10;;
12832;SDS011;6483;51.310;4.462;2022-09-01T00:34:09;2.88;;;1.40;;
12832;SDS011;6483;51.310;4.462;2022-09-01T00:36:39;3.15;;;1.40;;
12832;SDS011;6483;51.310;4.462;2022-09-01T00:39:05;2.45;;;1.38;;
12832;SDS011;6483;51.310;4.462;2022-09-01T00:41:32;2.42;;;1.25;;
12832;SDS011;6483;51.310;4.462;2022-09-01T00:44:06;4.07;;;1.30;;
12832;SDS011;6483;51.310;4.462;2022-09-01T00:46:33;1.80;;;1.20;;
12832;SDS011;6483;51.310;4.462;2022-09-01T00:49:43;3.35;;;1.25;;
12832;SDS011;6483;51.310;4.462;2022-09-01T00:51:50;2.75;;;1.38;;
12832;SDS011;6483;51.310;4.462;2022-09-01T00:54:18;5.25;;;1.20;;
12832;SDS011;6483;51.310;4.462;2022-09-01T00:56:44;2.13;;;1.05;;
12832;SDS011;6483;51.310;4.462;2022-09-01T00:59:11;1.63;;;1.30;;
12832;SDS011;6483;51.310;4.462;2022-09-01T01:01:37;1.88;;;1.20;;
12832;SDS011;6483;51.310;4.462;2022-09-01T01:04:04;2.35;;;1.42;;
12832;SDS011;6483;51.310;4.462;2022-09-01T01:06:38;3.78;;;1.38;;
12832;SDS011;6483;51.310;4.462;2022-09-01T01:09:10;1.77;;;1.30;;
12832;SDS011;6483;51.310;4.462;2022-09-01T01:11:37;1.98;;;1.50;;
12832;SDS011;6483;51.310;4.462;2022-09-01T01:14:05;1.30;;;1.20;;
12832;SDS011;6483;51.310;4.462;2022-09-01T01:16:40;2.05;;;1.40;;
12832;SDS011;6483;51.310;4.462;2022-09-01T01:19:12;2.33;;;1.35;;
12832;SDS011;6483;51.310;4.462;2022-09-01T01:22:01;1.67;;;1.27;;
12832;SDS011;6483;51.310;4.462;2022-09-01T01:24:46;2.47;;;1.25;;
12832;SDS011;6483;51.310;4.462;2022-09-01T01:27:12;2.03;;;1.13;;
12832;SDS011;6483;51.310;4.462;2022-09-01T01:29:45;6.07;;;1.75;;
12832;SDS011;6483;51.310;4.462;2022-09-01T01:32:18;3.13;;;1.05;;
12832;SDS011;6483;51.310;4.462;2022-09-01T01:34:47;2.20;;;1.75;;
12832;SDS011;6483;51.310;4.462;2022-09-01T01:37:13;3.05;;;1.27;;
12832;SDS011;6483;51.310;4.462;2022-09-01T01:39:40;1.30;;;1.20;;
12832;SDS011;6483;51.310;4.462;2022-09-01T01:42:09;3.17;;;1.48;;
12832;SDS011;6483;51.310;4.462;2022-09-01T01:44:36;3.85;;;1.30;;
12832;SDS011;6483;51.310;4.462;2022-09-01T01:47:03;3.05;;;1.35;;
12832;SDS011;6483;51.310;4.462;2022-09-01T01:49:35;4.28;;;1.52;;
12832;SDS011;6483;51.310;4.462;2022-09-01T01:52:04;1.85;;;1.10;;
12832;SDS011;6483;51.310;4.462;2022-09-01T01:54:30;2.00;;;1.13;;
12832;SDS011;6483;51.310;4.462;2022-09-01T01:56:57;2.17;;;1.13;;
12832;SDS011;6483;51.310;4.462;2022-09-01T01:59:23;2.25;;;1.55;;
12832;SDS011;6483;51.310;4.462;2022-09-01T02:01:50;4.20;;;1.60;;
12832;SDS011;6483;51.310;4.462;2022-09-01T02:04:17;1.75;;;1.10;;
12832;SDS011;6483;51.310;4.462;2022-09-01T02:06:47;4.93;;;1.48;;
12832;SDS011;6483;51.310;4.462;2022-09-01T02:09:14;1.88;;;1.10;;
12832;SDS011;6483;51.310;4.462;2022-09-01T02:11:41;2.15;;;1.23;;
12832;SDS011;6483;51.310;4.462;2022-09-01T02:14:09;1.60;;;1.50;;
12832;SDS011;6483;51.310;4.462;2022-09-01T02:16:36;1.45;;;1.33;;
12832;SDS011;6483;51.310;4.462;2022-09-01T02:19:03;2.05;;;1.45;;
12832;SDS011;6483;51.310;4.462;2022-09-01T02:21:34;1.63;;;1.42;;
12832;SDS011;6483;51.310;4.462;2022-09-01T02:24:03;3.45;;;1.20;;
12832;SDS011;6483;51.310;4.462;2022-09-01T02:26:34;1.65;;;1.42;;
12832;SDS011;6483;51.310;4.462;2022-09-01T02:29:03;1.88;;;1.20;;
12832;SDS011;6483;51.310;4.462;2022-09-01T02:31:38;4.47;;;1.30;;
12832;SDS011;6483;51.310;4.462;2022-09-01T02:34:06;2.08;;;1.58;;
12832;SDS011;6483;51.310;4.462;2022-09-01T02:36:38;2.40;;;1.55;;
12832;SDS011;6483;51.310;4.462;2022-09-01T02:39:08;1.35;;;1.25;;
12832;SDS011;6483;51.310;4.462;2022-09-01T02:41:34;2.15;;;1.42;;
12832;SDS011;6483;51.310;4.462;2022-09-01T02:44:01;1.52;;;1.35;;
12832;SDS011;6483;51.310;4.462;2022-09-01T02:46:28;1.85;;;1.42;;
12832;SDS011;6483;51.310;4.462;2022-09-01T02:48:54;4.22;;;1.70;;
12832;SDS011;6483;51.310;4.462;2022-09-01T02:51:23;4.88;;;1.42;;
12832;SDS011;6483;51.310;4.462;2022-09-01T02:53:49;1.70;;;1.27;;
12832;SDS011;6483;51.310;4.462;2022-09-01T02:56:17;1.33;;;1.23;;
12832;SDS011;6483;51.310;4.462;2022-09-01T02:58:45;3.20;;;1.40;;
12832;SDS011;6483;51.310;4.462;2022-09-01T03:01:16;1.70;;;1.60;;
12832;SDS011;6483;51.310;4.462;2022-09-01T03:03:48;4.93;;;1.30;;
12832;SDS011;6483;51.310;4.462;2022-09-01T03:06:18;2.88;;;1.60;;
12832;SDS011;6483;51.310;4.462;2022-09-01T03:08:49;2.72;;;1.30;;
12832;SDS011;6483;51.310;4.462;2022-09-01T03:11:16;3.13;;;1.48;;
12832;SDS011;6483;51.310;4.462;2022-09-01T03:13:42;3.88;;;1.40;;
12832;SDS011;6483;51.310;4.462;2022-09-01T03:16:09;2.08;;;1.48;;
12832;SDS011;6483;51.310;4.462;2022-09-01T03:18:36;4.35;;;1.75;;
12832;SDS011;6483;51.310;4.462;2022-09-01T03:21:02;2.25;;;1.60;;
12832;SDS011;6483;51.310;4.462;2022-09-01T03:23:30;3.78;;;1.60;;
12832;SDS011;6483;51.310;4.462;2022-09-01T03:25:57;4.03;;;1.90;;
12832;SDS011;6483;51.310;4.462;2022-09-01T03:28:24;3.15;;;2.00;;
12832;SDS011;6483;51.310;4.462;2022-09-01T03:30:54;4.20;;;1.98;;
12832;SDS011;6483;51.310;4.462;2022-09-01T03:33:24;1.80;;;1.42;;
12832;SDS011;6483;51.310;4.462;2022-09-01T03:35:51;1.73;;;1.40;;
12832;SDS011;6483;51.310;4.462;2022-09-01T03:38:17;5.72;;;1.77;;
12832;SDS011;6483;51.310;4.462;2022-09-01T03:40:53;2.00;;;1.80;;
12832;SDS011;6483;51.310;4.462;2022-09-01T03:43:23;2.88;;;1.63;;
12832;SDS011;6483;51.310;4.462;2022-09-01T03:45:53;4.18;;;1.80;;
12832;SDS011;6483;51.310;4.462;2022-09-01T03:48:20;2.30;;;1.70;;
12832;SDS011;6483;51.310;4.462;2022-09-01T03:50:46;1.90;;;1.73;;
12832;SDS011;6483;51.310;4.462;2022-09-01T03:53:14;4.78;;;1.58;;
12832;SDS011;6483;51.310;4.462;2022-09-01T03:55:46;3.28;;;1.52;;
12832;SDS011;6483;51.310;4.462;2022-09-01T03:58:13;1.92;;;1.77;;
12832;SDS011;6483;51.310;4.462;2022-09-01T04:00:43;1.80;;;1.50;;
12832;SDS011;6483;51.310;4.462;2022-09-01T04:03:10;5.25;;;1.95;;
12832;SDS011;6483;51.310;4.462;2022-09-01T04:05:37;2.47;;;1.67;;
12832;SDS011;6483;51.310;4.462;2022-09-01T04:08:05;2.15;;;1.50;;
12832;SDS011;6483;51.310;4.462;2022-09-01T04:10:36;4.45;;;1.77;;
12832;SDS011;6483;51.310;4.462;2022-09-01T04:13:06;4.28;;;2.05;;
12832;SDS011;6483;51.310;4.462;2022-09-01T04:15:37;3.65;;;1.55;;
12832;SDS011;6483;51.310;4.462;2022-09-01T04:18:03;1.70;;;1.60;;
12832;SDS011;6483;51.310;4.462;2022-09-01T04:20:44;2.00;;;1.80;;
12832;SDS011;6483;51.310;4.462;2022-09-01T04:23:24;2.10;;;1.90;;
12832;SDS011;6483;51.310;4.462;2022-09-01T04:25:54;4.70;;;1.95;;
12832;SDS011;6483;51.310;4.462;2022-09-01T04:28:21;1.80;;;1.63;;
12832;SDS011;6483;51.310;4.462;2022-09-01T04:31:10;2.40;;;2.08;;
12832;SDS011;6483;51.310;4.462;2022-09-01T04:33:42;3.50;;;2.10;;
12832;SDS011;6483;51.310;4.462;2022-09-01T04:36:27;2.88;;;2.10;;
12832;SDS011;6483;51.310;4.462;2022-09-01T04:38:58;3.47;;;1.77;;
12832;SDS011;6483;51.310;4.462;2022-09-01T04:41:25;6.60;;;2.03;;
12832;SDS011;6483;51.310;4.462;2022-09-01T04:43:52;3.92;;;1.85;;
12832;SDS011;6483;51.310;4.462;2022-09-01T04:46:22;2.13;;;1.95;;
12832;SDS011;6483;51.310;4.462;2022-09-01T04:48:58;2.70;;;1.90;;
12832;SDS011;6483;51.310;4.462;2022-09-01T04:51:41;3.65;;;2.00;;
12832;SDS011;6483;51.310;4.462;2022-09-01T04:54:08;4.78;;;2.38;;
12832;SDS011;6483;51.310;4.462;2022-09-01T04:56:40;3.35;;;2.20;;
12832;SDS011;6483;51.310;4.462;2022-09-01T04:59:10;3.92;;;2.08;;
12832;SDS011;6483;51.310;4.462;2022-09-01T05:01:37;5.03;;;2.10;;
12832;SDS011;6483;51.310;4.462;2022-09-01T05:04:10;3.92;;;2.33;;
12832;SDS011;6483;51.310;4.462;2022-09-01T05:06:38;4.13;;;2.10;;
12832;SDS011;6483;51.310;4.462;2022-09-01T05:09:09;2.65;;;2.22;;
12832;SDS011;6483;51.310;4.462;2022-09-01T05:11:36;4.15;;;2.25;;
12832;SDS011;6483;51.310;4.462;2022-09-01T05:14:10;2.58;;;2.38;;
12832;SDS011;6483;51.310;4.462;2022-09-01T05:16:37;2.92;;;2.28;;
12832;SDS011;6483;51.310;4.462;2022-09-01T05:19:07;3.55;;;2.38;;
12832;SDS011;6483;51.310;4.462;2022-09-01T05:21:39;2.20;;;2.00;;
12832;SDS011;6483;51.310;4.462;2022-09-01T05:24:11;2.58;;;2.38;;
12832;SDS011;6483;51.310;4.462;2022-09-01T05:26:38;2.40;;;2.13;;
12832;SDS011;6483;51.310;4.462;2022-09-01T05:29:06;4.72;;;2.35;;
12832;SDS011;6483;51.310;4.462;2022-09-01T05:31:37;2.45;;;2.22;;
12832;SDS011;6483;51.310;4.462;2022-09-01T05:34:04;4.13;;;2.60;;
12832;SDS011;6483;51.310;4.462;2022-09-01T05:36:33;3.90;;;2.63;;
12832;SDS011;6483;51.310;4.462;2022-09-01T05:39:00;3.22;;;2.15;;
12832;SDS011;6483;51.310;4.462;2022-09-01T05:41:26;2.45;;;2.25;;
12832;SDS011;6483;51.310;4.462;2022-09-01T05:43:53;3.22;;;2.30;;
12832;SDS011;6483;51.310;4.462;2022-09-01T05:46:22;2.78;;;2.22;;
12832;SDS011;6483;51.310;4.462;2022-09-01T05:48:49;3.40;;;2.67;;
12832;SDS011;6483;51.310;4.462;2022-09-01T05:51:16;5.40;;;3.00;;
12832;SDS011;6483;51.310;4.462;2022-09-01T05:53:46;5.97;;;2.58;;
12832;SDS011;6483;51.310;4.462;2022-09-01T05:56:16;4.00;;;2.80;;
12832;SDS011;6483;51.310;4.462;2022-09-01T05:58:46;2.95;;;2.38;;
12832;SDS011;6483;51.310;4.462;2022-09-01T06:01:16;4.55;;;2.67;;
12832;SDS011;6483;51.310;4.462;2022-09-01T06:03:46;3.72;;;2.50;;
12832;SDS011;6483;51.310;4.462;2022-09-01T06:06:14;3.42;;;2.28;;
12832;SDS011;6483;51.310;4.462;2022-09-01T06:08:42;3.92;;;2.78;;
12832;SDS011;6483;51.310;4.462;2022-09-01T06:11:15;3.78;;;2.60;;
12832;SDS011;6483;51.310;4.462;2022-09-01T06:13:44;3.22;;;2.67;;
12832;SDS011;6483;51.310;4.462;2022-09-01T06:16:14;3.67;;;2.65;;
12832;SDS011;6483;51.310;4.462;2022-09-01T06:18:42;5.45;;;2.22;;
12832;SDS011;6483;51.310;4.462;2022-09-01T06:21:11;7.43;;;3.22;;
12832;SDS011;6483;51.310;4.462;2022-09-01T06:23:42;3.33;;;2.70;;
12832;SDS011;6483;51.310;4.462;2022-09-01T06:26:18;4.10;;;3.08;;
12832;SDS011;6483;51.310;4.462;2022-09-01T06:28:44;3.45;;;3.15;;
12832;SDS011;6483;51.310;4.462;2022-09-01T06:31:12;5.43;;;2.90;;
12832;SDS011;6483;51.310;4.462;2022-09-01T06:33:39;4.45;;;3.50;;
12832;SDS011;6483;51.310;4.462;2022-09-01T06:36:06;4.53;;;3.40;;
12832;SDS011;6483;51.310;4.462;2022-09-01T06:38:52;6.55;;;3.60;;
12832;SDS011;6483;51.310;4.462;2022-09-01T06:41:24;4.75;;;3.70;;
12832;SDS011;6483;51.310;4.462;2022-09-01T06:43:53;6.65;;;3.95;;
12832;SDS011;6483;51.310;4.462;2022-09-01T06:46:20;6.78;;;3.28;;
12832;SDS011;6483;51.310;4.462;2022-09-01T06:48:47;4.43;;;3.53;;
12832;SDS011;6483;51.310;4.462;2022-09-01T06:51:14;4.55;;;3.63;;
12832;SDS011;6483;51.310;4.462;2022-09-01T06:53:44;9.57;;;4.20;;
12832;SDS011;6483;51.310;4.462;2022-09-01T06:56:13;8.35;;;4.32;;
12832;SDS011;6483;51.310;4.462;2022-09-01T06:58:41;9.52;;;4.47;;
12832;SDS011;6483;51.310;4.462;2022-09-01T07:01:16;8.63;;;5.00;;
12832;SDS011;6483;51.310;4.462;2022-09-01T07:03:54;7.78;;;4.28;;
12832;SDS011;6483;51.310;4.462;2022-09-01T07:06:24;6.82;;;4.28;;
12832;SDS011;6483;51.310;4.462;2022-09-01T07:08:54;7.03;;;4.82;;
12832;SDS011;6483;51.310;4.462;2022-09-01T07:11:24;8.10;;;4.88;;
12832;SDS011;6483;51.310;4.462;2022-09-01T07:13:52;9.82;;;4.18;;
12832;SDS011;6483;51.310;4.462;2022-09-01T07:16:24;14.43;;;4.85;;
12832;SDS011;6483;51.310;4.462;2022-09-01T07:18:54;7.82;;;4.97;;
12832;SDS011;6483;51.310;4.462;2022-09-01T07:21:22;10.30;;;4.68;;
12832;SDS011;6483;51.310;4.462;2022-09-01T07:23:48;6.65;;;4.63;;
12832;SDS011;6483;51.310;4.462;2022-09-01T07:26:15;9.15;;;4.75;;
12832;SDS011;6483;51.310;4.462;2022-09-01T07:28:46;8.23;;;4.50;;
12832;SDS011;6483;51.310;4.462;2022-09-01T07:31:25;9.07;;;4.20;;
12832;SDS011;6483;51.310;4.462;2022-09-01T07:33:53;6.00;;;4.30;;
12832;SDS011;6483;51.310;4.462;2022-09-01T07:36:22;6.20;;;4.60;;
12832;SDS011;6483;51.310;4.462;2022-09-01T07:38:49;8.02;;;4.30;;
12832;SDS011;6483;51.310;4.462;2022-09-01T07:41:21;9.65;;;4.40;;
12832;SDS011;6483;51.310;4.462;2022-09-01T07:43:48;15.40;;;4.57;;
12832;SDS011;6483;51.310;4.462;2022-09-01T07:46:20;9.45;;;4.63;;
12832;SDS011;6483;51.310;4.462;2022-09-01T07:48:47;6.22;;;4.57;;
12832;SDS011;6483;51.310;4.462;2022-09-01T07:51:15;10.25;;;4.15;;
12832;SDS011;6483;51.310;4.462;2022-09-01T07:53:46;7.10;;;4.57;;
12832;SDS011;6483;51.310;4.462;2022-09-01T07:56:13;11.40;;;4.68;;
12832;SDS011;6483;51.310;4.462;2022-09-01T07:58:39;6.53;;;4.40;;
12832;SDS011;6483;51.310;4.462;2022-09-01T08:01:10;10.80;;;4.72;;
12832;SDS011;6483;51.310;4.462;2022-09-01T08:03:37;6.72;;;4.22;;
12832;SDS011;6483;51.310;4.462;2022-09-01T08:06:05;8.07;;;4.68;;
12832;SDS011;6483;51.310;4.462;2022-09-01T08:08:32;7.57;;;4.22;;
12832;SDS011;6483;51.310;4.462;2022-09-01T08:10:58;6.35;;;4.35;;
12832;SDS011;6483;51.310;4.462;2022-09-01T08:13:25;6.80;;;4.22;;
12832;SDS011;6483;51.310;4.462;2022-09-01T08:15:51;9.77;;;4.22;;
12832;SDS011;6483;51.310;4.462;2022-09-01T08:18:17;7.15;;;4.22;;
12832;SDS011;6483;51.310;4.462;2022-09-01T08:20:44;7.00;;;4.15;;
12832;SDS011;6483;51.310;4.462;2022-09-01T08:23:12;11.77;;;4.43;;
12832;SDS011;6483;51.310;4.462;2022-09-01T08:25:42;7.78;;;4.70;;
12832;SDS011;6483;51.310;4.462;2022-09-01T08:28:09;5.22;;;3.63;;
12832;SDS011;6483;51.310;4.462;2022-09-01T08:30:39;7.45;;;4.45;;
12832;SDS011;6483;51.310;4.462;2022-09-01T08:33:07;8.85;;;3.78;;
12832;SDS011;6483;51.310;4.462;2022-09-01T08:35:39;9.15;;;3.83;;
12832;SDS011;6483;51.310;4.462;2022-09-01T08:38:07;4.78;;;3.58;;
12832;SDS011;6483;51.310;4.462;2022-09-01T08:40:34;7.10;;;3.97;;
12832;SDS011;6483;51.310;4.462;2022-09-01T08:43:15;4.50;;;3.30;;
12832;SDS011;6483;51.310;4.462;2022-09-01T08:48:21;7.32;;;3.53;;
12832;SDS011;6483;51.310;4.462;2022-09-01T08:50:54;5.95;;;3.13;;
12832;SDS011;6483;51.310;4.462;2022-09-01T08:55:49;7.45;;;3.00;;
12832;SDS011;6483;51.310;4.462;2022-09-01T08:58:18;5.50;;;3.13;;
12832;SDS011;6483;51.310;4.462;2022-09-01T09:00:46;7.68;;;3.45;;
12832;SDS011;6483;51.310;4.462;2022-09-01T09:03:41;5.90;;;3.72;;
12832;SDS011;6483;51.310;4.462;2022-09-01T09:06:37;6.20;;;3.50;;
12832;SDS011;6483;51.310;4.462;2022-09-01T09:09:15;8.52;;;3.85;;
12832;SDS011;6483;51.310;4.462;2022-09-01T09:14:44;8.23;;;3.65;;
12832;SDS011;6483;51.310;4.462;2022-09-01T09:17:16;6.20;;;3.58;;
12832;SDS011;6483;51.310;4.462;2022-09-01T09:19:50;10.43;;;3.97;;
12832;SDS011;6483;51.310;4.462;2022-09-01T09:22:17;4.32;;;3.25;;
12832;SDS011;6483;51.310;4.462;2022-09-01T09:24:53;5.28;;;3.40;;
12832;SDS011;6483;51.310;4.462;2022-09-01T09:29:52;8.48;;;3.42;;
12832;SDS011;6483;51.310;4.462;2022-09-01T09:32:20;7.47;;;3.58;;
12832;SDS011;6483;51.310;4.462;2022-09-01T09:34:46;8.60;;;3.88;;
12832;SDS011;6483;51.310;4.462;2022-09-01T09:39:41;8.52;;;3.97;;
12832;SDS011;6483;51.310;4.462;2022-09-01T09:42:12;6.32;;;3.20;;
12832;SDS011;6483;51.310;4.462;2022-09-01T09:44:48;7.97;;;3.25;;
12832;SDS011;6483;51.310;4.462;2022-09-01T09:47:37;4.88;;;3.15;;
12832;SDS011;6483;51.310;4.462;2022-09-01T09:51:04;5.53;;;2.60;;
12832;SDS011;6483;51.310;4.462;2022-09-01T09:56:08;4.05;;;2.42;;
12832;SDS011;6483;51.310;4.462;2022-09-01T09:58:42;5.38;;;2.85;;
12832;SDS011;6483;51.310;4.462;2022-09-01T10:03:51;4.43;;;2.15;;
12832;SDS011;6483;51.310;4.462;2022-09-01T10:06:37;4.55;;;2.15;;
12832;SDS011;6483;51.310;4.462;2022-09-01T10:09:06;4.43;;;2.03;;
12832;SDS011;6483;51.310;4.462;2022-09-01T10:11:35;2.60;;;1.88;;
12832;SDS011;6483;51.310;4.462;2022-09-01T10:14:21;3.90;;;2.20;;
12832;SDS011;6483;51.310;4.462;2022-09-01T10:16:52;4.20;;;2.30;;
12832;SDS011;6483;51.310;4.462;2022-09-01T10:19:20;4.03;;;2.00;;
12832;SDS011;6483;51.310;4.462;2022-09-01T10:21:48;4.38;;;1.92;;
12832;SDS011;6483;51.310;4.462;2022-09-01T10:24:29;3.33;;;2.00;;
12832;SDS011;6483;51.310;4.462;2022-09-01T10:26:58;3.20;;;1.60;;
12832;SDS011;6483;51.310;4.462;2022-09-01T10:29:30;3.30;;;1.67;;
12832;SDS011;6483;51.310;4.462;2022-09-01T10:31:59;2.75;;;1.75;;
12832;SDS011;6483;51.310;4.462;2022-09-01T10:34:26;6.43;;;1.90;;
12832;SDS011;6483;51.310;4.462;2022-09-01T10:36:56;3.17;;;1.98;;
12832;SDS011;6483;51.310;4.462;2022-09-01T10:39:23;3.22;;;2.17;;
12832;SDS011;6483;51.310;4.462;2022-09-01T10:41:53;5.00;;;1.92;;
12832;SDS011;6483;51.310;4.462;2022-09-01T10:44:31;3.13;;;1.70;;
12832;SDS011;6483;51.310;4.462;2022-09-01T10:47:23;5.72;;;2.08;;
12832;SDS011;6483;51.310;4.462;2022-09-01T10:55:27;4.65;;;1.45;;
12832;SDS011;6483;51.310;4.462;2022-09-01T10:58:18;3.97;;;1.70;;
12832;SDS011;6483;51.310;4.462;2022-09-01T11:00:45;7.00;;;1.70;;
12832;SDS011;6483;51.310;4.462;2022-09-01T11:08:22;2.85;;;1.55;;
12832;SDS011;6483;51.310;4.462;2022-09-01T11:10:53;8.82;;;1.52;;
12832;SDS011;6483;51.310;4.462;2022-09-01T11:13:30;2.33;;;1.23;;
12832;SDS011;6483;51.310;4.462;2022-09-01T11:18:42;5.55;;;1.40;;
12832;SDS011;6483;51.310;4.462;2022-09-01T11:21:15;1.48;;;1.27;;
12832;SDS011;6483;51.310;4.462;2022-09-01T11:23:42;3.55;;;1.50;;
12832;SDS011;6483;51.310;4.462;2022-09-01T11:26:52;5.20;;;1.65;;
12832;SDS011;6483;51.310;4.462;2022-09-01T11:28:59;4.60;;;1.90;;
12832;SDS011;6483;51.310;4.462;2022-09-01T11:31:30;3.70;;;2.33;;
12832;SDS011;6483;51.310;4.462;2022-09-01T11:34:09;2.85;;;1.40;;
12832;SDS011;6483;51.310;4.462;2022-09-01T11:36:50;3.38;;;1.90;;
12832;SDS011;6483;51.310;4.462;2022-09-01T11:41:51;3.53;;;1.95;;
12832;SDS011;6483;51.310;4.462;2022-09-01T11:44:29;3.65;;;1.85;;
12832;SDS011;6483;51.310;4.462;2022-09-01T11:47:16;4.05;;;1.80;;
12832;SDS011;6483;51.310;4.462;2022-09-01T11:49:50;2.33;;;1.30;;
12832;SDS011;6483;51.310;4.462;2022-09-01T11:52:18;3.60;;;1.70;;
12832;SDS011;6483;51.310;4.462;2022-09-01T11:54:45;6.53;;;1.73;;
12832;SDS011;6483;51.310;4.462;2022-09-01T11:59:46;1.55;;;1.40;;
12832;SDS011;6483;51.310;4.462;2022-09-01T12:02:46;4.05;;;1.83;;
12832;SDS011;6483;51.310;4.462;2022-09-01T12:07:48;3.70;;;1.40;;
12832;SDS011;6483;51.310;4.462;2022-09-01T12:10:16;4.10;;;1.60;;
12832;SDS011;6483;51.310;4.462;2022-09-01T12:12:42;6.63;;;1.73;;
12832;SDS011;6483;51.310;4.462;2022-09-01T12:15:13;3.47;;;1.52;;
12832;SDS011;6483;51.310;4.462;2022-09-01T12:17:42;8.00;;;1.63;;
12832;SDS011;6483;51.310;4.462;2022-09-01T12:20:22;2.63;;;1.50;;
12832;SDS011;6483;51.310;4.462;2022-09-01T12:22:49;1.77;;;1.42;;
12832;SDS011;6483;51.310;4.462;2022-09-01T12:25:25;2.00;;;1.52;;
12832;SDS011;6483;51.310;4.462;2022-09-01T12:27:52;2.83;;;1.88;;
12832;SDS011;6483;51.310;4.462;2022-09-01T12:30:19;3.72;;;1.88;;
12832;SDS011;6483;51.310;4.462;2022-09-01T12:32:46;6.00;;;1.80;;
12832;SDS011;6483;51.310;4.462;2022-09-01T12:35:14;2.22;;;1.73;;
12832;SDS011;6483;51.310;4.462;2022-09-01T12:37:45;3.20;;;2.10;;
12832;SDS011;6483;51.310;4.462;2022-09-01T12:40:22;4.03;;;2.15;;
12832;SDS011;6483;51.310;4.462;2022-09-01T12:42:49;4.55;;;2.10;;
12832;SDS011;6483;51.310;4.462;2022-09-01T12:45:34;4.00;;;2.08;;
12832;SDS011;6483;51.310;4.462;2022-09-01T12:48:00;5.07;;;2.20;;
12832;SDS011;6483;51.310;4.462;2022-09-01T12:57:49;3.25;;;1.70;;
12832;SDS011;6483;51.310;4.462;2022-09-01T13:00:23;6.35;;;1.92;;
12832;SDS011;6483;51.310;4.462;2022-09-01T13:02:50;6.18;;;1.33;;
12832;SDS011;6483;51.310;4.462;2022-09-01T13:05:42;5.13;;;1.60;;
12832;SDS011;6483;51.310;4.462;2022-09-01T13:13:02;3.85;;;2.00;;
12832;SDS011;6483;51.310;4.462;2022-09-01T13:15:28;3.92;;;1.73;;
12832;SDS011;6483;51.310;4.462;2022-09-01T13:17:55;3.28;;;1.73;;
12832;SDS011;6483;51.310;4.462;2022-09-01T13:20:21;3.15;;;1.50;;
12832;SDS011;6483;51.310;4.462;2022-09-01T13:22:48;2.45;;;2.00;;
12832;SDS011;6483;51.310;4.462;2022-09-01T13:25:15;2.83;;;1.85;;
12832;SDS011;6483;51.310;4.462;2022-09-01T13:27:41;2.75;;;1.80;;
12832;SDS011;6483;51.310;4.462;2022-09-01T13:30:14;2.97;;;1.80;;
12832;SDS011;6483;51.310;4.462;2022-09-01T13:32:42;3.65;;;1.70;;
12832;SDS011;6483;51.310;4.462;2022-09-01T13:35:09;2.90;;;1.92;;
12832;SDS011;6483;51.310;4.462;2022-09-01T13:37:39;6.35;;;2.28;;
12832;SDS011;6483;51.310;4.462;2022-09-01T13:40:05;8.10;;;2.50;;
12832;SDS011;6483;51.310;4.462;2022-09-01T13:42:32;4.45;;;1.98;;
12832;SDS011;6483;51.310;4.462;2022-09-01T13:44:58;5.72;;;2.28;;
12832;SDS011;6483;51.310;4.462;2022-09-01T13:47:28;4.70;;;2.67;;
12832;SDS011;6483;51.310;4.462;2022-09-01T13:49:54;8.38;;;2.92;;
12832;SDS011;6483;51.310;4.462;2022-09-01T13:52:20;6.07;;;2.40;;
12832;SDS011;6483;51.310;4.462;2022-09-01T13:54:46;3.55;;;2.90;;
12832;SDS011;6483;51.310;4.462;2022-09-01T13:57:12;4.22;;;2.80;;
12832;SDS011;6483;51.310;4.462;2022-09-01T13:59:40;3.88;;;2.42;;
12832;SDS011;6483;51.310;4.462;2022-09-01T14:02:06;4.47;;;2.65;;
12832;SDS011;6483;51.310;4.462;2022-09-01T14:04:32;7.10;;;2.67;;
12832;SDS011;6483;51.310;4.462;2022-09-01T14:06:59;3.40;;;2.35;;
12832;SDS011;6483;51.310;4.462;2022-09-01T14:09:28;5.82;;;2.67;;
12832;SDS011;6483;51.310;4.462;2022-09-01T14:11:55;5.13;;;2.83;;
12832;SDS011;6483;51.310;4.462;2022-09-01T14:14:21;5.68;;;2.20;;
12832;SDS011;6483;51.310;4.462;2022-09-01T14:16:48;4.45;;;2.28;;
12832;SDS011;6483;51.310;4.462;2022-09-01T14:19:14;7.68;;;2.58;;
12832;SDS011;6483;51.310;4.462;2022-09-01T14:21:46;4.15;;;2.17;;
12832;SDS011;6483;51.310;4.462;2022-09-01T14:24:13;4.18;;;2.58;;
12832;SDS011;6483;51.310;4.462;2022-09-01T14:26:42;4.53;;;2.42;;
12832;SDS011;6483;51.310;4.462;2022-09-01T14:29:11;3.95;;;1.92;;
12832;SDS011;6483;51.310;4.462;2022-09-01T14:31:37;2.90;;;1.83;;
12832;SDS011;6483;51.310;4.462;2022-09-01T14:34:06;3.08;;;2.42;;
12832;SDS011;6483;51.310;4.462;2022-09-01T14:36:36;4.50;;;2.20;;
12832;SDS011;6483;51.310;4.462;2022-09-01T14:39:02;7.68;;;2.92;;
12832;SDS011;6483;51.310;4.462;2022-09-01T14:41:29;7.35;;;2.67;;
12832;SDS011;6483;51.310;4.462;2022-09-01T14:43:55;6.22;;;3.53;;
12832;SDS011;6483;51.310;4.462;2022-09-01T14:46:26;3.80;;;2.00;;
12832;SDS011;6483;51.310;4.462;2022-09-01T14:48:54;5.80;;;2.08;;
12832;SDS011;6483;51.310;4.462;2022-09-01T14:51:22;7.85;;;3.13;;
12832;SDS011;6483;51.310;4.462;2022-09-01T14:53:51;6.78;;;2.90;;
12832;SDS011;6483;51.310;4.462;2022-09-01T14:56:17;4.85;;;2.33;;
12832;SDS011;6483;51.310;4.462;2022-09-01T14:58:44;6.40;;;2.42;;
12832;SDS011;6483;51.310;4.462;2022-09-01T15:01:17;7.60;;;2.50;;
12832;SDS011;6483;51.310;4.462;2022-09-01T15:03:45;5.43;;;2.10;;
12832;SDS011;6483;51.310;4.462;2022-09-01T15:06:18;5.93;;;2.67;;
12832;SDS011;6483;51.310;4.462;2022-09-01T15:09:09;3.00;;;2.38;;
12832;SDS011;6483;51.310;4.462;2022-09-01T15:11:39;9.13;;;2.72;;
12832;SDS011;6483;51.310;4.462;2022-09-01T15:14:05;6.68;;;2.95;;
12832;SDS011;6483;51.310;4.462;2022-09-01T15:16:33;7.63;;;2.75;;
12832;SDS011;6483;51.310;4.462;2022-09-01T15:19:07;10.25;;;2.72;;
12832;SDS011;6483;51.310;4.462;2022-09-01T15:21:35;4.15;;;2.20;;
12832;SDS011;6483;51.310;4.462;2022-09-01T15:24:01;6.07;;;2.17;;
12832;SDS011;6483;51.310;4.462;2022-09-01T15:26:46;5.57;;;2.85;;
12832;SDS011;6483;51.310;4.462;2022-09-01T15:29:12;4.80;;;2.15;;
12832;SDS011;6483;51.310;4.462;2022-09-01T15:31:44;6.68;;;2.63;;
12832;SDS011;6483;51.310;4.462;2022-09-01T15:34:14;10.18;;;2.40;;
12832;SDS011;6483;51.310;4.462;2022-09-01T15:36:42;5.30;;;2.35;;
12832;SDS011;6483;51.310;4.462;2022-09-01T15:39:11;3.50;;;2.20;;
12832;SDS011;6483;51.310;4.462;2022-09-01T15:41:42;5.85;;;2.13;;
12832;SDS011;6483;51.310;4.462;2022-09-01T15:44:08;5.40;;;3.05;;
12832;SDS011;6483;51.310;4.462;2022-09-01T15:46:36;5.60;;;2.90;;
12832;SDS011;6483;51.310;4.462;2022-09-01T15:49:07;4.03;;;2.33;;
12832;SDS011;6483;51.310;4.462;2022-09-01T15:51:40;3.60;;;2.42;;
12832;SDS011;6483;51.310;4.462;2022-09-01T15:54:08;5.13;;;2.63;;
12832;SDS011;6483;51.310;4.462;2022-09-01T15:56:35;7.30;;;2.33;;
12832;SDS011;6483;51.310;4.462;2022-09-01T15:59:03;8.77;;;2.53;;
12832;SDS011;6483;51.310;4.462;2022-09-01T16:01:31;3.92;;;2.60;;
12832;SDS011;6483;51.310;4.462;2022-09-01T16:04:00;4.80;;;2.75;;
12832;SDS011;6483;51.310;4.462;2022-09-01T16:06:26;5.30;;;2.97;;
12832;SDS011;6483;51.310;4.462;2022-09-01T16:08:53;3.53;;;2.70;;
12832;SDS011;6483;51.310;4.462;2022-09-01T16:11:22;5.53;;;2.88;;